Terminal Aerodrome Forecast
Issued by NWS

Home | Current Version | Previous Version | Graphics & Text | Print | Product List | Glossary On
Versions: 1 2 3 4 5 6 7 8 9 10 11 12 13 14 15 16 17 18
000
FTUS43 KICT 202334
TAFCNU
TAF
KCNU 202334Z 2100/2124 16008KT P6SM FEW060
     FM210700 17012KT P6SM BKN012
     FM210900 17012KT 5SM BR OVC006
     FM211600 19017G26KT P6SM OVC007=

USA.gov is the U.S. government's official web portal to all federal, state and local government web resources and services.